Shawnee Mission, KS (66212)

14:41 CDT le 18 septembre 2014 (GMT -0500)
Round Hill - Fay Ironman | Change Station
CLOSE
Current Station
Stations météorologiques personnelles
Location: Overland Park, KS
Altitude: 1063 ft
Stations météo à proximité

Alt. 1063 ft 38.97 °N, 94.65 °W | Updated 23 seconds ago

Couvert
Couvert
66.3 ° F
Paraît 66.3 ° F
N
3.0
Vent Variable Vent de ENE
Gusts 5.0 mph

Aujourd'hui
Haut(e) -- | Bas -- ° F
--% Risque de précip.
Hier
Haut(e) -- | Bas -- ° F
Precip. -- pouce
7:02 AM 7:22 PM
Lune descendante, 25% visible
Pression 30.00 pouce
Visibilité 10.0 Miles terrestres
Nuages Couvert 1700 ft
Point de rosée 63 ° F
Humidité 89%
Précipitations 0.00 pouce
Profondeur de la couche neigeuse Non disponible.
UV 2 sur 12
Pollen 4.50 sur 12
Qualité de l'air Non disponible.
Flu Activity Non disponible.
SPECI KOJC 181922Z 06007KT 10SM OVC017 19/17 A3000 RMK AO2 T01940172

More Conditions Fewer Conditions

Pression 30.00 pouce
Visibilité 10.0 Miles terrestres
Nuages Couvert 1700 ft
Point de rosée 63 ° F
Humidité 89%
Précipitations 0.00 pouce
Profondeur de la couche neigeuse Non disponible.
UV 2 sur 12
Pollen 4.50 sur 12
Qualité de l'air Non disponible.
Flu Activity Non disponible.
SPECI KOJC 181922Z 06007KT 10SM OVC017 19/17 A3000 RMK AO2 T01940172

More Conditions Fewer Conditions

10-Day Weather Forecast

Almanac

Astronomie

Sep. 18, 2014 Lever Coucher
Temps réel 07:02 CDT 19:22 CDT
Crépuscule civil 06:36 CDT 19:48 CDT
Crépuscule nautique 06:04 CDT 20:20 CDT
Crépuscule astronomique 05:32 CDT 20:51 CDT
Lune 01:57 CDT 16:12 CDT
Durée de lumière visible 13h 12m
Longueur du jour
12h 19m
Tomorrow will be 2m 31s shorter.
Lune descendante, 25% of the Moon is Illuminated
Aujourd'hui
Lune descendante
Sep 24
Nouveau
Oct 1
Premier quartier
Oct 8
Pleine lune
Oct 15
Dernier quartier

Extrêmes aujourd'hui

State Highs State Lows

Community

WunderPhotos

Upload Photos

1,754,421 Photos téléchargées !

WunderBlogs® & News

By Dr. Jeff Masters
Director of Meteorology, Weather Underground
By Kari Strenfel
Meteorologist, Weather Underground
By Christopher C. Burt
Weather Historian, Weather Underground
September 18, 2014
September 18, 2014
September 18, 2014

Nearby

Épaisseur de neige

Station Depth Altitude
Pas de nouvelles chutes de neige

Activité sismique

Ville Distance Mag. Time & Date
No recent earthquake activity has been reported nearby.
Minimum magnitude displayed is 2.5.

Températures des eaux côtières

Lieu Température
Aucun rapport de station

Stations météo à proximité